createdAt,value
2023-12-08T00:02:27.059Z,100600.16
2023-12-08T00:04:55.964Z,100595.77
2023-12-08T00:07:24.537Z,100592.45
2023-12-08T00:09:53.630Z,100589.94
2023-12-08T00:12:22.926Z,100587.62
2023-12-08T00:14:52.878Z,100582.35
2023-12-08T00:17:21.831Z,100586.30
2023-12-08T00:19:50.776Z,100587.17
2023-12-08T00:22:19.830Z,100588.68
2023-12-08T00:24:49.136Z,100589.18
2023-12-08T00:27:17.598Z,100591.50
2023-12-08T00:29:46.204Z,100591.52
2023-12-08T00:32:14.795Z,100589.08
2023-12-08T00:34:43.590Z,100589.75
2023-12-08T00:37:12.034Z,100586.11
2023-12-08T00:39:42.034Z,100582.59
2023-12-08T00:42:11.725Z,100581.85
2023-12-08T00:44:40.165Z,100576.99
2023-12-08T00:47:08.733Z,100576.38
2023-12-08T00:49:37.841Z,100574.90
2023-12-08T00:52:07.744Z,100580.33
2023-12-08T00:54:36.227Z,100583.70
2023-12-08T00:57:05.216Z,100583.02
2023-12-08T00:59:33.862Z,100586.67
2023-12-08T01:02:02.298Z,100590.20
2023-12-08T01:04:30.752Z,100594.16
2023-12-08T01:06:59.353Z,100593.10
2023-12-08T01:09:28.026Z,100593.19
2023-12-08T01:11:56.471Z,100587.29
2023-12-08T01:14:25.098Z,100584.98
2023-12-08T01:16:53.984Z,100579.31
2023-12-08T01:19:22.540Z,100578.41
2023-12-08T01:21:51.465Z,100574.48
2023-12-08T01:24:19.978Z,100577.23
2023-12-08T01:26:48.579Z,100575.00
2023-12-08T01:29:18.545Z,100573.26
2023-12-08T01:31:47.336Z,100573.23
2023-12-08T01:34:16.276Z,100568.73
2023-12-08T01:36:45.075Z,100571.78
2023-12-08T01:39:14.196Z,100571.40
2023-12-08T01:41:42.838Z,100574.41
2023-12-08T01:44:11.786Z,100573.63
2023-12-08T01:46:40.277Z,100573.74
2023-12-08T01:49:09.154Z,100567.98
2023-12-08T01:51:37.846Z,100560.85
2023-12-08T01:54:07.739Z,100555.78
2023-12-08T01:56:37.331Z,100547.55
2023-12-08T01:59:06.084Z,100547.09
2023-12-08T02:01:35.162Z,100543.67
2023-12-08T02:04:04.751Z,100538.77
2023-12-08T02:06:33.380Z,100530.29
2023-12-08T02:09:01.879Z,100527.20
2023-12-08T02:11:30.493Z,100522.77
2023-12-08T02:13:59.604Z,100520.85
2023-12-08T02:16:35.313Z,100520.57
2023-12-08T02:19:07.860Z,100521.50
2023-12-08T02:21:37.256Z,100519.17
2023-12-08T02:24:06.212Z,100513.61
2023-12-08T02:26:34.935Z,100512.02
2023-12-08T02:29:07.300Z,100511.90
2023-12-08T02:31:49.585Z,100517.67
2023-12-08T02:34:19.959Z,100516.22
2023-12-08T02:36:51.669Z,100506.85
2023-12-08T02:39:21.664Z,100506.15
2023-12-08T02:41:50.535Z,100503.35
2023-12-08T02:44:19.170Z,100499.22
2023-12-08T02:46:47.947Z,100493.45
2023-12-08T02:49:16.642Z,100482.09
2023-12-08T02:51:45.336Z,100474.69
2023-12-08T02:54:13.927Z,100471.16
2023-12-08T02:56:42.827Z,100471.60
2023-12-08T02:59:11.181Z,100459.48
2023-12-08T03:01:39.871Z,100455.05
2023-12-08T03:04:08.663Z,100449.85
2023-12-08T03:06:37.134Z,100454.05
2023-12-08T03:09:06.385Z,100454.64
2023-12-08T03:11:35.086Z,100445.47
2023-12-08T03:14:03.604Z,100450.64
2023-12-08T03:16:32.086Z,100457.29
2023-12-08T03:19:00.776Z,100458.36
2023-12-08T03:21:29.573Z,100459.10
2023-12-08T03:23:58.429Z,100459.73
2023-12-08T03:26:27.342Z,100452.92
2023-12-08T03:28:55.916Z,100442.49
2023-12-08T03:31:32.716Z,100448.41
2023-12-08T03:34:01.542Z,100451.80
2023-12-08T03:36:30.482Z,100453.90
2023-12-08T03:38:59.190Z,100451.73
2023-12-08T03:41:27.752Z,100456.33
2023-12-08T03:43:56.865Z,100459.48
2023-12-08T03:46:25.435Z,100461.41
2023-12-08T03:48:55.569Z,100458.52
2023-12-08T03:51:24.451Z,100463.10
2023-12-08T03:53:53.063Z,100461.65
2023-12-08T03:56:21.567Z,100457.27
2023-12-08T03:58:49.893Z,100455.73
2023-12-08T04:01:21.829Z,100457.58
2023-12-08T04:03:50.546Z,100458.34
2023-12-08T04:06:19.566Z,100457.09
2023-12-08T04:08:48.361Z,100458.64
2023-12-08T04:11:16.899Z,100454.98
2023-12-08T04:13:45.516Z,100448.23
2023-12-08T04:16:15.908Z,100439.86
2023-12-08T04:18:44.521Z,100434.61
2023-12-08T04:21:22.104Z,100433.33
2023-12-08T04:23:50.484Z,100432.15
2023-12-08T04:26:22.421Z,100433.83
2023-12-08T04:28:50.803Z,100432.48
2023-12-08T04:31:19.597Z,100436.63
2023-12-08T04:33:49.673Z,100430.73
2023-12-08T04:36:18.417Z,100426.70
2023-12-08T04:38:47.107Z,100423.58
2023-12-08T04:41:18.298Z,100417.46
2023-12-08T04:43:48.804Z,100412.80
2023-12-08T04:46:19.504Z,100409.70
2023-12-08T04:48:48.524Z,100400.95
2023-12-08T04:51:17.272Z,100405.48
2023-12-08T04:53:45.694Z,100405.49
2023-12-08T04:56:14.457Z,100406.66
2023-12-08T04:58:42.830Z,100407.57
2023-12-08T05:01:15.631Z,100403.60
2023-12-08T05:03:44.112Z,100408.75
2023-12-08T05:06:12.589Z,100406.29
2023-12-08T05:08:41.434Z,100411.10
2023-12-08T05:11:09.946Z,100415.95
2023-12-08T05:13:38.515Z,100419.58
2023-12-08T05:16:07.516Z,100420.59
2023-12-08T05:18:36.876Z,100424.84
2023-12-08T05:21:05.641Z,100424.36
2023-12-08T05:23:34.208Z,100428.23
2023-12-08T05:26:02.978Z,100434.88
2023-12-08T05:28:31.464Z,100428.34
2023-12-08T05:31:00.195Z,100434.58
2023-12-08T05:33:29.281Z,100432.46
2023-12-08T05:35:58.283Z,100431.13
2023-12-08T05:38:27.331Z,100428.63
2023-12-08T05:40:57.361Z,100425.32
2023-12-08T05:43:27.164Z,100424.38
2023-12-08T05:45:55.536Z,100419.08
2023-12-08T05:48:24.503Z,100417.40
2023-12-08T05:50:53.385Z,100417.89
2023-12-08T05:53:21.918Z,100410.39
2023-12-08T05:55:51.316Z,100410.84
2023-12-08T05:58:19.736Z,100412.11
2023-12-08T06:00:48.413Z,100404.23
2023-12-08T06:03:18.827Z,100393.34
2023-12-08T06:05:47.546Z,100390.86
2023-12-08T06:08:16.179Z,100393.64
2023-12-08T06:10:48.028Z,100386.25
2023-12-08T06:13:17.762Z,100379.95
2023-12-08T06:15:46.086Z,100373.17
2023-12-08T06:18:15.438Z,100372.58
2023-12-08T06:20:44.585Z,100375.96
2023-12-08T06:23:13.213Z,100378.01
2023-12-08T06:25:43.541Z,100376.45
2023-12-08T06:28:12.829Z,100381.30
2023-12-08T06:30:41.896Z,100386.65
2023-12-08T06:33:10.662Z,100386.66
2023-12-08T06:35:39.418Z,100392.02
2023-12-08T06:38:07.974Z,100397.70
2023-12-08T06:40:36.561Z,100401.73
2023-12-08T06:43:05.577Z,100395.95
2023-12-08T06:45:34.496Z,100388.39
2023-12-08T06:48:03.219Z,100384.41
2023-12-08T06:50:32.316Z,100380.61
2023-12-08T06:53:01.753Z,100374.25
2023-12-08T06:55:30.831Z,100372.27
2023-12-08T06:57:59.414Z,100379.02
2023-12-08T07:00:28.367Z,100382.59
2023-12-08T07:02:57.749Z,100373.33
2023-12-08T07:05:27.037Z,100371.22
2023-12-08T07:07:57.961Z,100376.08
2023-12-08T07:10:27.948Z,100367.39
2023-12-08T07:12:57.383Z,100366.59
2023-12-08T07:15:26.995Z,100373.05
2023-12-08T07:17:57.103Z,100376.04
2023-12-08T07:20:26.705Z,100373.06
2023-12-08T07:22:58.166Z,100375.16
2023-12-08T07:25:27.569Z,100380.55
2023-12-08T07:27:57.232Z,100381.25
2023-12-08T07:30:26.234Z,100381.06
2023-12-08T07:32:55.680Z,100376.98
2023-12-08T07:35:24.554Z,100377.66
2023-12-08T07:37:53.446Z,100379.05
2023-12-08T07:40:22.136Z,100375.43
2023-12-08T07:42:51.037Z,100375.41
2023-12-08T07:45:20.200Z,100370.46
2023-12-08T07:47:52.202Z,100359.99
2023-12-08T07:50:21.498Z,100364.06
2023-12-08T07:52:50.189Z,100367.48
2023-12-08T07:55:18.869Z,100362.16
2023-12-08T07:57:48.195Z,100369.39
2023-12-08T08:00:18.410Z,100373.28
2023-12-08T08:02:47.577Z,100374.44
2023-12-08T08:05:17.520Z,100377.66
2023-12-08T08:07:46.668Z,100381.77
2023-12-08T08:10:15.475Z,100389.01
2023-12-08T08:12:44.786Z,100387.08
2023-12-08T08:15:14.205Z,100395.19
2023-12-08T08:17:43.793Z,100394.75
2023-12-08T08:20:13.700Z,100391.86
2023-12-08T08:22:43.919Z,100396.31
2023-12-08T08:25:13.186Z,100399.16
2023-12-08T08:27:42.475Z,100402.48
2023-12-08T08:30:12.244Z,100402.53
2023-12-08T08:32:41.828Z,100400.13
2023-12-08T08:35:11.717Z,100398.39
2023-12-08T08:37:41.208Z,100399.27
2023-12-08T08:40:11.370Z,100396.42
2023-12-08T08:42:40.671Z,100387.39
2023-12-08T08:45:11.355Z,100383.77
2023-12-08T08:47:41.719Z,100381.67
2023-12-08T08:50:11.004Z,100381.05
2023-12-08T08:52:40.363Z,100384.98
2023-12-08T08:55:12.107Z,100386.54
2023-12-08T08:57:41.471Z,100376.00
2023-12-08T09:00:14.282Z,100363.09
2023-12-08T09:02:45.998Z,100361.55
2023-12-08T09:05:16.427Z,100359.84
2023-12-08T09:07:46.476Z,100345.89
2023-12-08T09:10:17.283Z,100343.72
2023-12-08T09:12:48.669Z,100340.41
2023-12-08T09:15:18.184Z,100343.40
2023-12-08T09:17:47.987Z,100348.66
2023-12-08T09:20:18.869Z,100345.11
2023-12-08T09:22:48.135Z,100342.67
2023-12-08T09:25:16.956Z,100342.02
2023-12-08T09:27:45.807Z,100338.29
2023-12-08T09:30:15.975Z,100339.66
2023-12-08T09:32:44.499Z,100327.52
2023-12-08T09:35:13.762Z,100324.35
2023-12-08T09:37:42.770Z,100321.41
2023-12-08T09:40:15.432Z,100313.66
2023-12-08T09:42:53.532Z,100309.29
2023-12-08T09:45:22.760Z,100301.23
2023-12-08T09:47:55.907Z,100307.73
2023-12-08T09:50:25.758Z,100308.39
2023-12-08T09:52:56.344Z,100302.35
2023-12-08T09:55:28.258Z,100301.32
2023-12-08T09:57:59.369Z,100296.67
2023-12-08T10:00:32.825Z,100302.67
2023-12-08T10:03:02.219Z,100300.59
2023-12-08T10:05:31.360Z,100302.96
2023-12-08T10:08:02.491Z,100309.01
2023-12-08T10:10:31.810Z,100305.33
2023-12-08T10:13:01.718Z,100311.55
2023-12-08T10:15:32.700Z,100313.14
2023-12-08T10:18:03.268Z,100308.68
2023-12-08T10:20:33.025Z,100294.91
2023-12-08T10:23:03.815Z,100280.89
2023-12-08T10:25:34.315Z,100288.20
2023-12-08T10:28:05.346Z,100283.08
2023-12-08T10:30:35.508Z,100260.29
2023-12-08T10:33:05.789Z,100262.48
2023-12-08T10:35:39.529Z,100265.83
2023-12-08T10:38:09.712Z,100259.83
2023-12-08T10:41:27.019Z,100253.02
2023-12-08T10:43:59.310Z,100243.46
2023-12-08T10:46:34.572Z,100231.50
2023-12-08T10:49:06.235Z,100225.17
2023-12-08T10:51:38.028Z,100213.41
2023-12-08T10:54:08.392Z,100213.27
2023-12-08T10:56:38.575Z,100212.05
2023-12-08T10:59:11.182Z,100209.95
2023-12-08T11:01:41.645Z,100212.76
2023-12-08T11:04:14.343Z,100214.27
2023-12-08T11:07:05.607Z,100219.42
2023-12-08T11:09:40.370Z,100218.27
2023-12-08T11:12:15.362Z,100220.29
2023-12-08T11:14:55.572Z,100218.77
2023-12-08T11:17:37.473Z,100217.04
2023-12-08T11:20:09.551Z,100218.98
2023-12-08T11:22:39.154Z,100223.34
2023-12-08T11:25:17.349Z,100223.45
2023-12-08T11:28:00.846Z,100212.31
2023-12-08T11:30:57.983Z,100219.84
2023-12-08T11:33:33.467Z,100217.08
2023-12-08T11:36:15.927Z,100219.77
2023-12-08T11:38:45.491Z,100218.02
2023-12-08T11:41:17.503Z,100215.27
2023-12-08T11:43:48.053Z,100209.86
2023-12-08T11:46:17.037Z,100199.34
2023-12-08T11:48:50.628Z,100196.82
2023-12-08T11:51:19.556Z,100195.34
2023-12-08T11:53:59.159Z,100203.69
2023-12-08T11:56:44.066Z,100204.91
2023-12-08T11:59:25.841Z,100204.52
2023-12-08T12:01:55.375Z,100202.21
2023-12-08T12:04:24.440Z,100200.70
2023-12-08T12:06:55.116Z,100193.83
2023-12-08T12:09:24.694Z,100195.50
2023-12-08T12:11:56.767Z,100194.41
2023-12-08T12:14:27.496Z,100193.36
2023-12-08T12:16:56.246Z,100193.73
2023-12-08T12:19:25.976Z,100191.02
2023-12-08T12:21:54.846Z,100187.02
2023-12-08T12:24:23.627Z,100179.30
2023-12-08T12:26:52.864Z,100176.96
2023-12-08T12:29:22.744Z,100171.27
2023-12-08T12:31:52.956Z,100164.42
2023-12-08T12:34:21.818Z,100159.67
2023-12-08T12:36:51.271Z,100156.36
2023-12-08T12:39:21.113Z,100156.80
2023-12-08T12:41:50.077Z,100156.86
2023-12-08T12:44:19.173Z,100149.48
2023-12-08T12:46:48.373Z,100147.69
2023-12-08T12:49:17.342Z,100145.73
2023-12-08T12:51:46.660Z,100148.50
2023-12-08T12:54:23.330Z,100148.67
2023-12-08T12:56:53.340Z,100153.11
2023-12-08T12:59:22.135Z,100166.73
2023-12-08T13:01:50.816Z,100178.99
2023-12-08T13:04:19.428Z,100180.96
2023-12-08T13:06:47.995Z,100175.25
2023-12-08T13:09:27.145Z,100173.36
2023-12-08T13:11:56.275Z,100167.12
2023-12-08T13:14:25.517Z,100171.73
2023-12-08T13:16:54.811Z,100174.16
2023-12-08T13:19:23.642Z,100174.67
2023-12-08T13:21:52.495Z,100172.41
2023-12-08T13:24:20.990Z,100170.58
2023-12-08T13:26:49.982Z,100169.52
2023-12-08T13:29:19.380Z,100172.58
2023-12-08T13:31:48.807Z,100163.23
2023-12-08T13:34:17.806Z,100160.98
2023-12-08T13:36:46.889Z,100154.65
2023-12-08T13:39:15.664Z,100153.02
2023-12-08T13:41:44.770Z,100148.91
2023-12-08T13:44:13.769Z,100152.38
2023-12-08T13:46:42.647Z,100150.83
2023-12-08T13:49:12.192Z,100147.98
2023-12-08T13:51:42.225Z,100144.79
2023-12-08T13:54:11.950Z,100150.45
2023-12-08T13:56:40.619Z,100147.48
2023-12-08T13:59:09.832Z,100138.71
2023-12-08T14:01:38.597Z,100136.84
2023-12-08T14:04:09.276Z,100133.93
2023-12-08T14:06:38.646Z,100127.38
2023-12-08T14:09:07.322Z,100126.17
2023-12-08T14:11:35.897Z,100127.16
2023-12-08T14:14:04.806Z,100128.61
2023-12-08T14:16:33.550Z,100130.68
2023-12-08T14:19:03.630Z,100128.45
2023-12-08T14:21:32.093Z,100132.78
2023-12-08T14:24:00.800Z,100132.23
2023-12-08T14:26:29.559Z,100137.92
2023-12-08T14:28:58.125Z,100138.93
2023-12-08T14:31:26.925Z,100141.48
2023-12-08T14:33:57.026Z,100139.59
2023-12-08T14:36:25.640Z,100134.57
2023-12-08T14:38:56.194Z,100129.23
2023-12-08T14:41:24.912Z,100124.96
2023-12-08T14:43:55.963Z,100127.98
2023-12-08T14:46:24.572Z,100125.98
2023-12-08T14:48:53.375Z,100125.14
2023-12-08T14:51:24.270Z,100130.37
2023-12-08T14:53:53.389Z,100132.41
2023-12-08T14:56:22.058Z,100133.96
2023-12-08T14:58:51.637Z,100131.66
2023-12-08T15:01:22.681Z,100128.14
2023-12-08T15:03:51.600Z,100129.70
2023-12-08T15:06:20.838Z,100131.77
2023-12-08T15:08:49.722Z,100133.90
2023-12-08T15:11:21.529Z,100136.62
2023-12-08T15:13:50.456Z,100141.14
2023-12-08T15:16:19.524Z,100145.95
2023-12-08T15:18:48.675Z,100150.98
2023-12-08T15:21:22.931Z,100153.95
2023-12-08T15:23:57.938Z,100147.40
2023-12-08T15:26:28.333Z,100145.23
2023-12-08T15:28:58.198Z,100143.79
2023-12-08T15:31:31.487Z,100138.86
2023-12-08T15:34:04.290Z,100145.16
2023-12-08T15:36:37.918Z,100141.05
2023-12-08T15:39:10.519Z,100141.55
2023-12-08T15:41:47.840Z,100151.91
2023-12-08T15:44:17.469Z,100158.45
2023-12-08T15:46:47.087Z,100160.61
2023-12-08T15:49:17.099Z,100160.09
2023-12-08T15:51:47.030Z,100154.39
2023-12-08T15:54:16.825Z,100151.75
2023-12-08T15:56:46.636Z,100158.09
2023-12-08T15:59:16.068Z,100155.20
2023-12-08T16:01:45.115Z,100158.81
2023-12-08T16:04:14.338Z,100161.18
2023-12-08T16:06:44.611Z,100165.46
2023-12-08T16:09:13.871Z,100163.44
2023-12-08T16:11:43.173Z,100162.25
2023-12-08T16:14:12.552Z,100163.46
2023-12-08T16:16:42.507Z,100155.23
2023-12-08T16:19:13.076Z,100156.46
2023-12-08T16:21:43.267Z,100148.44
2023-12-08T16:24:12.904Z,100147.99
2023-12-08T16:26:41.928Z,100144.52
2023-12-08T16:29:11.316Z,100139.43
2023-12-08T16:31:41.564Z,100137.83
2023-12-08T16:34:11.727Z,100137.05
2023-12-08T16:36:41.290Z,100128.29
2023-12-08T16:39:14.866Z,100134.81
2023-12-08T16:41:49.609Z,100137.71
2023-12-08T16:44:19.609Z,100136.34
2023-12-08T16:46:49.962Z,100134.67
2023-12-08T16:49:19.704Z,100134.16
2023-12-08T16:51:51.541Z,100137.56
2023-12-08T16:54:22.589Z,100138.52
2023-12-08T16:56:53.206Z,100137.23
2023-12-08T16:59:22.885Z,100133.89
2023-12-08T17:01:53.125Z,100137.73
2023-12-08T17:04:23.163Z,100137.15
2023-12-08T17:06:57.025Z,100133.96
2023-12-08T17:09:27.191Z,100135.96
2023-12-08T17:11:58.388Z,100136.86
2023-12-08T17:14:28.439Z,100143.23
2023-12-08T17:17:02.946Z,100141.13
2023-12-08T17:19:34.265Z,100147.16
2023-12-08T17:22:05.250Z,100140.67
2023-12-08T17:24:35.496Z,100140.14
2023-12-08T17:27:06.034Z,100139.01
2023-12-08T17:29:36.117Z,100143.38
2023-12-08T17:32:06.556Z,100145.49
2023-12-08T17:34:36.975Z,100147.29
2023-12-08T17:37:07.918Z,100148.02
2023-12-08T17:39:37.949Z,100144.52
2023-12-08T17:42:10.024Z,100146.86
2023-12-08T17:44:39.690Z,100143.96
2023-12-08T17:47:12.749Z,100147.11
2023-12-08T17:49:43.151Z,100145.98
2023-12-08T17:52:13.074Z,100142.64
2023-12-08T17:54:43.724Z,100144.86
2023-12-08T17:57:14.352Z,100142.33
2023-12-08T17:59:44.014Z,100142.05
2023-12-08T18:02:14.641Z,100139.33
2023-12-08T18:04:43.720Z,100136.35
2023-12-08T18:07:13.857Z,100136.25
2023-12-08T18:09:44.177Z,100135.55
2023-12-08T18:12:14.582Z,100137.45
2023-12-08T18:14:43.809Z,100132.84
2023-12-08T18:17:13.613Z,100127.95
2023-12-08T18:19:43.761Z,100125.98
2023-12-08T18:22:13.465Z,100123.00
2023-12-08T18:24:42.436Z,100127.66
2023-12-08T18:27:20.070Z,100132.86
2023-12-08T18:29:58.409Z,100130.58
2023-12-08T18:32:28.315Z,100131.71
2023-12-08T18:34:57.545Z,100132.39
2023-12-08T18:37:26.315Z,100131.54
2023-12-08T18:39:55.223Z,100131.21
2023-12-08T18:42:26.070Z,100134.59
2023-12-08T18:44:55.619Z,100135.07
2023-12-08T18:47:24.758Z,100136.71
2023-12-08T18:49:55.110Z,100133.45
2023-12-08T18:52:25.161Z,100133.42
2023-12-08T18:54:54.927Z,100132.73
2023-12-08T18:57:25.542Z,100123.63
2023-12-08T18:59:56.950Z,100116.31
2023-12-08T19:02:27.742Z,100116.71
2023-12-08T19:05:02.257Z,100111.33
2023-12-08T19:07:33.235Z,100110.80
2023-12-08T19:10:03.213Z,100108.38
2023-12-08T19:12:32.370Z,100110.70
2023-12-08T19:15:01.778Z,100112.38
2023-12-08T19:17:31.657Z,100113.20
2023-12-08T19:20:02.617Z,100113.29
2023-12-08T19:22:31.871Z,100103.55
2023-12-08T19:25:02.758Z,100106.88
2023-12-08T19:27:33.235Z,100111.89
2023-12-08T19:30:03.022Z,100114.31
2023-12-08T19:32:32.806Z,100115.23
2023-12-08T19:35:06.314Z,100115.86
2023-12-08T19:37:36.960Z,100111.42
2023-12-08T19:40:07.385Z,100108.22
2023-12-08T19:42:37.518Z,100113.94
2023-12-08T19:45:07.541Z,100119.10
2023-12-08T19:47:37.334Z,100119.41
2023-12-08T19:50:07.946Z,100123.27
2023-12-08T19:52:38.869Z,100123.66
2023-12-08T19:55:11.682Z,100123.70
2023-12-08T19:57:43.683Z,100125.60
2023-12-08T20:00:15.752Z,100119.91
2023-12-08T20:02:47.016Z,100117.52
2023-12-08T20:05:16.613Z,100112.77
2023-12-08T20:07:47.653Z,100113.41
2023-12-08T20:10:18.020Z,100113.28
2023-12-08T20:12:48.469Z,100114.53
2023-12-08T20:15:27.337Z,100120.95
2023-12-08T20:18:00.171Z,100120.38
2023-12-08T20:20:32.998Z,100116.63
2023-12-08T20:23:02.825Z,100118.39
2023-12-08T20:25:33.051Z,100112.48
2023-12-08T20:28:04.069Z,100112.17
2023-12-08T20:30:33.584Z,100113.70
2023-12-08T20:33:04.102Z,100116.67
2023-12-08T20:35:33.605Z,100111.44
2023-12-08T20:38:02.597Z,100106.70
2023-12-08T20:40:31.660Z,100100.63
2023-12-08T20:43:03.556Z,100103.91
2023-12-08T20:45:33.311Z,100102.67
2023-12-08T20:48:03.232Z,100099.13
2023-12-08T20:50:32.538Z,100100.20
2023-12-08T20:53:02.097Z,100091.59
2023-12-08T20:55:32.208Z,100093.63
2023-12-08T20:58:01.528Z,100096.67
2023-12-08T21:00:30.732Z,100098.74
2023-12-08T21:03:01.110Z,100102.61
2023-12-08T21:05:30.325Z,100106.23
2023-12-08T21:08:00.132Z,100108.40
2023-12-08T21:10:29.815Z,100111.95
2023-12-08T21:12:59.700Z,100115.04
2023-12-08T21:15:29.196Z,100118.67
2023-12-08T21:17:58.508Z,100116.94
2023-12-08T21:20:27.583Z,100105.05
2023-12-08T21:22:56.810Z,100108.00
2023-12-08T21:25:25.698Z,100109.48
2023-12-08T21:27:56.038Z,100107.30
2023-12-08T21:30:25.720Z,100114.59
2023-12-08T21:32:55.206Z,100118.30
2023-12-08T21:35:24.595Z,100117.17
2023-12-08T21:37:54.510Z,100118.19
2023-12-08T21:40:23.564Z,100118.64
2023-12-08T21:42:54.816Z,100119.86
2023-12-08T21:45:24.025Z,100124.10
2023-12-08T21:47:53.139Z,100125.64
2023-12-08T21:50:23.957Z,100131.30
2023-12-08T21:52:54.252Z,100132.33
2023-12-08T21:55:23.981Z,100129.90
2023-12-08T21:57:53.514Z,100133.14
2023-12-08T22:00:24.502Z,100136.59
2023-12-08T22:02:56.173Z,100135.33
2023-12-08T22:05:26.402Z,100135.75
2023-12-08T22:07:56.437Z,100134.93
2023-12-08T22:10:26.536Z,100134.16
2023-12-08T22:12:55.956Z,100138.34
2023-12-08T22:15:24.553Z,100137.40
2023-12-08T22:17:54.069Z,100140.59
2023-12-08T22:20:23.010Z,100135.63
2023-12-08T22:22:52.525Z,100137.77
2023-12-08T22:25:21.637Z,100139.86
2023-12-08T22:27:50.807Z,100140.71
2023-12-08T22:30:20.172Z,100140.03
2023-12-08T22:32:49.433Z,100147.48
2023-12-08T22:35:18.748Z,100153.34
2023-12-08T22:37:50.242Z,100153.14
2023-12-08T22:40:19.871Z,100149.92
2023-12-08T22:42:49.625Z,100152.03
2023-12-08T22:45:18.605Z,100148.94
2023-12-08T22:47:49.145Z,100154.44
2023-12-08T22:50:18.043Z,100155.73
2023-12-08T22:52:46.945Z,100155.79
2023-12-08T22:55:15.866Z,100155.50
2023-12-08T22:57:44.302Z,100155.41
2023-12-08T23:00:13.713Z,100154.96
2023-12-08T23:02:42.777Z,100158.73
2023-12-08T23:05:12.042Z,100164.55
2023-12-08T23:07:40.527Z,100167.10
2023-12-08T23:10:09.845Z,100170.35
2023-12-08T23:12:39.315Z,100167.20
2023-12-08T23:15:09.425Z,100164.75
2023-12-08T23:17:39.110Z,100163.49
2023-12-08T23:20:08.278Z,100158.16
2023-12-08T23:22:36.745Z,100159.95
2023-12-08T23:25:05.773Z,100164.01
2023-12-08T23:27:34.432Z,100167.03
2023-12-08T23:30:04.911Z,100167.64
2023-12-08T23:32:33.717Z,100171.95
2023-12-08T23:35:05.398Z,100176.02
2023-12-08T23:37:34.085Z,100175.84
2023-12-08T23:40:02.903Z,100179.69
2023-12-08T23:42:31.917Z,100174.98
2023-12-08T23:45:00.819Z,100177.12
2023-12-08T23:47:29.770Z,100176.02
2023-12-08T23:49:58.339Z,100175.39
2023-12-08T23:52:27.302Z,100175.67
2023-12-08T23:54:56.107Z,100178.37
2023-12-08T23:57:24.629Z,100176.77
2023-12-08T23:59:53.208Z,100179.45
